Sylvania, OH (43560)

1:33 AM EST on December 16, 2019 (GMT -0500)
Sylvania | | Change Station
Active Advisory: Special Statement

Elev 676 ft 41.72 °N, 83.73 °W | Updated 2 minutes ago

Snow
Snow
29.8 °F
Feels Like 30 °F
N
0
Wind Variable Wind from SSE
Gusts 0.0 mph

Today
High -- | Low -- °F
--% Chance of Precip.
Yesterday
High -- | Low -- °F
Precip. -- in
Pressure 30.13 in
Visibility 10.0 miles
Clouds Overcast 6000 ft
Windchill 30 °F
Dew Point 23 °F
Humidity 77%
Rainfall 0.00 in
Snow Depth Not available.
7:55 AM 5:05 PM
Waning Gibbous, 81% visible
METAR KDUH 160615Z AUTO 00000KT 10SM OVC060 M01/M06 A3013 RMK AO2 T10151060
Pressure 30.13 in
Visibility 10.0 miles
Clouds Overcast 6000 ft
Windchill 30 °F
Dew Point 23 °F
Humidity 77%
Rainfall 0.00 in
Snow Depth Not available.
7:55 AM 5:05 PM
Waning Gibbous, 81% visible
METAR KDUH 160615Z AUTO 00000KT 10SM OVC060 M01/M06 A3013 RMK AO2 T10151060

Get Your Daily Forecast Email!

Thanks for signing up!

Be on the lookout for a verification email in your inbox.

You'll start receiving severe weather alerts in your inbox..

×

10-Day Weather Forecast

Almanac

Astronomy

Dec. 16, 2019 Rise Set
Actual Time
Civil Twilight
Nautical Twilight
Astronomical Twilight
Moon
Length of Visible Light
Length of Day
Tomorrow will be .
, % of the Moon is Illuminated

Today's Extremes

State Highs State Lows

Community

WunderPhotos

Category 6

Welcome to Category 6. This is the collective home for Weather Underground's featured writeups by Dr. Jeff Masters (right), Bob Henson (left), Chris Burt, and other regular contributors.

Nearby

Air Quality

  Air Quality AQ Index Pollutant
Not available.

Snow Depth

Station Depth Elevation

Earthquake Activity

City Distance Mag. Time & Date
Minimum magnitude displayed is 2.5.

Coastal Water Temperatures

Place Temperature

Stations

Nearby Weather Stations

Station Location Temp. Windchill Dew Point Humidity Wind Precip. Elev Updated Type
                   

Watches & Warnings

Special Statement
Issued: 12:39 AM EST Dec. 16, 2019 – National Weather Service

... Slippery roads due to light snow accumulations through Monday
morning...

Light to occasionally moderate snow will move northeastward
overnight. The snow will then taper off early Monday morning.
Accumulations of up to 1 to 2 inches are expected, highest south
of Highway 30. With temperatures well below freezing in the middle
to upper 20s, the snow will easily stick to untreated Road
surfaces and cause slick travel conditions. Motorists are advised
to drive slowly and increase following distance between their
vehicle and other vehicles when driving on snow or slush covered
roads. For the latest Ohio Road conditions, visit ohgo.Com.
Remember... ice and snow, take it slow!


Griffin